createdAt,value
2022-08-03T00:00:54.605Z,4.63
2022-08-03T00:03:25.051Z,4.87
2022-08-03T00:06:04.606Z,4.90
2022-08-03T00:08:40.332Z,4.95
2022-08-03T00:11:10.585Z,5.18
2022-08-03T00:13:40.834Z,5.00
2022-08-03T00:16:13.434Z,5.38
2022-08-03T00:18:43.936Z,5.32
2022-08-03T00:21:14.711Z,5.10
2022-08-03T00:23:51.286Z,4.95
2022-08-03T00:26:22.776Z,5.28
2022-08-03T00:28:53.378Z,5.00
2022-08-03T00:31:50.069Z,5.32
2022-08-03T00:34:13.870Z,5.65
2022-08-03T00:36:43.932Z,5.25
2022-08-03T00:39:16.677Z,5.25
2022-08-03T00:41:46.770Z,5.32
2022-08-03T00:44:16.874Z,5.30
2022-08-03T00:46:47.088Z,5.40
2022-08-03T00:49:17.337Z,5.22
2022-08-03T00:51:47.596Z,5.60
2022-08-03T00:54:21.735Z,5.10
2022-08-03T00:57:00.229Z,5.35
2022-08-03T00:59:30.808Z,5.30
2022-08-03T01:02:01.040Z,5.68
2022-08-03T01:04:31.498Z,6.15
2022-08-03T01:07:10.947Z,5.85
2022-08-03T01:09:49.390Z,5.90
2022-08-03T01:12:29.809Z,6.45
2022-08-03T01:15:12.994Z,6.00
2022-08-03T01:17:52.981Z,6.32
2022-08-03T01:20:25.173Z,6.05
2022-08-03T01:23:07.969Z,5.78
2022-08-03T01:25:54.749Z,6.28
2022-08-03T01:28:59.111Z,5.55
2022-08-03T01:34:28.388Z,6.60
2022-08-03T01:37:02.472Z,6.50
2022-08-03T01:39:35.989Z,6.07
2022-08-03T01:42:09.328Z,6.03
2022-08-03T01:44:44.884Z,5.85
2022-08-03T01:47:19.165Z,6.03
2022-08-03T01:49:52.869Z,6.75
2022-08-03T01:52:24.505Z,5.85
2022-08-03T01:54:56.773Z,5.80
2022-08-03T01:57:28.747Z,5.72
2022-08-03T02:00:02.976Z,5.97
2022-08-03T02:02:38.129Z,6.22
2022-08-03T02:05:12.929Z,5.88
2022-08-03T02:07:44.926Z,5.78
2022-08-03T02:10:22.268Z,6.18
2022-08-03T02:13:08.349Z,6.07
2022-08-03T02:15:40.644Z,6.32
2022-08-03T02:18:14.922Z,5.78
2022-08-03T02:20:47.227Z,6.38
2022-08-03T02:23:19.569Z,6.38
2022-08-03T02:25:53.838Z,6.28
2022-08-03T02:28:29.435Z,5.97
2022-08-03T02:31:04.565Z,6.30
2022-08-03T02:33:41.851Z,5.88
2022-08-03T02:36:16.105Z,6.13
2022-08-03T02:38:49.224Z,5.65
2022-08-03T02:41:24.021Z,6.22
2022-08-03T02:44:06.011Z,5.80
2022-08-03T02:46:49.339Z,6.63
2022-08-03T02:49:40.863Z,6.78
2022-08-03T02:54:49.417Z,6.40
2022-08-03T02:57:22.180Z,6.70
2022-08-03T02:59:54.601Z,7.03
2022-08-03T03:02:26.136Z,7.05
2022-08-03T03:05:52.011Z,6.25
2022-08-03T03:07:53.317Z,6.03
2022-08-03T03:10:27.698Z,6.13
2022-08-03T03:12:59.672Z,5.75
2022-08-03T03:15:31.843Z,6.60
2022-08-03T03:18:02.670Z,6.15
2022-08-03T03:20:36.935Z,5.50
2022-08-03T03:23:08.758Z,6.07
2022-08-03T03:25:41.291Z,6.00
2022-08-03T03:28:13.448Z,5.93
2022-08-03T03:30:43.782Z,5.78
2022-08-03T03:33:14.415Z,6.30
2022-08-03T03:35:48.700Z,5.85
2022-08-03T03:38:18.996Z,6.47
2022-08-03T03:40:50.063Z,6.25
2022-08-03T03:43:21.349Z,6.00
2022-08-03T03:45:53.208Z,6.22
2022-08-03T03:48:24.037Z,5.82
2022-08-03T03:50:57.481Z,6.28
2022-08-03T03:53:27.984Z,6.20
2022-08-03T03:56:02.243Z,6.05
2022-08-03T03:58:34.807Z,6.40
2022-08-03T04:01:05.066Z,5.85
2022-08-03T04:03:35.237Z,5.97
2022-08-03T04:06:20.368Z,6.40
2022-08-03T04:09:02.928Z,5.70
2022-08-03T04:11:39.291Z,6.25
2022-08-03T04:14:19.072Z,5.82
2022-08-03T04:19:29.876Z,5.18
2022-08-03T04:22:08.618Z,6.22
2022-08-03T04:24:46.501Z,6.13
2022-08-03T04:27:19.862Z,5.65
2022-08-03T04:29:52.314Z,6.22
2022-08-03T04:32:25.335Z,5.95
2022-08-03T04:34:55.877Z,6.57
2022-08-03T04:37:41.305Z,6.15
2022-08-03T04:40:16.351Z,5.95
2022-08-03T04:42:53.173Z,6.50
2022-08-03T04:45:25.142Z,5.75
2022-08-03T04:47:58.347Z,5.40
2022-08-03T04:50:30.365Z,6.00
2022-08-03T04:53:03.589Z,5.32
2022-08-03T04:55:35.922Z,5.55
2022-08-03T04:58:07.557Z,5.50
2022-08-03T05:00:38.377Z,5.30
2022-08-03T05:03:20.297Z,4.78
2022-08-03T05:06:01.923Z,5.95
2022-08-03T05:08:47.024Z,5.35
2022-08-03T05:11:19.160Z,5.50
2022-08-03T05:13:49.428Z,5.07
2022-08-03T05:16:19.615Z,5.53
2022-08-03T05:18:49.780Z,5.57
2022-08-03T05:21:20.011Z,5.25
2022-08-03T05:23:52.797Z,5.55
2022-08-03T05:26:22.930Z,5.45
2022-08-03T05:28:53.241Z,5.35
2022-08-03T05:31:23.362Z,6.00
2022-08-03T05:33:53.730Z,6.03
2022-08-03T05:36:23.895Z,5.82
2022-08-03T05:39:02.245Z,6.10
2022-08-03T05:41:37.036Z,6.30
2022-08-03T05:44:08.277Z,6.22
2022-08-03T05:46:38.554Z,6.10
2022-08-03T05:49:09.405Z,6.28
2022-08-03T05:51:40.021Z,6.65
2022-08-03T05:54:12.934Z,6.57
2022-08-03T05:56:43.820Z,6.28
2022-08-03T05:59:37.071Z,6.72
2022-08-03T06:02:04.888Z,7.10
2022-08-03T06:04:35.097Z,6.15
2022-08-03T06:07:05.220Z,7.15
2022-08-03T06:10:33.760Z,7.13
2022-08-03T06:12:28.461Z,6.97
2022-08-03T06:14:58.659Z,5.93
2022-08-03T06:17:28.766Z,6.10
2022-08-03T06:20:09.574Z,6.60
2022-08-03T06:22:44.514Z,6.70
2022-08-03T06:25:23.948Z,6.13
2022-08-03T06:27:54.330Z,6.25
2022-08-03T06:30:24.893Z,6.80
2022-08-03T06:32:55.084Z,6.57
2022-08-03T06:35:25.541Z,6.22
2022-08-03T06:37:56.206Z,6.00
2022-08-03T06:40:32.355Z,5.53
2022-08-03T06:43:04.122Z,6.80
2022-08-03T06:45:34.297Z,5.20
2022-08-03T06:48:05.250Z,5.72
2022-08-03T06:50:36.236Z,5.72
2022-08-03T06:53:18.222Z,5.80
2022-08-03T06:55:55.148Z,5.40
2022-08-03T06:58:25.649Z,6.00
2022-08-03T07:00:56.344Z,5.90
2022-08-03T07:03:26.486Z,5.70
2022-08-03T07:05:56.636Z,5.63
2022-08-03T07:08:34.178Z,5.75
2022-08-03T07:11:08.138Z,5.55
2022-08-03T07:13:38.286Z,5.63
2022-08-03T07:16:09.101Z,5.15
2022-08-03T07:18:41.639Z,5.45
2022-08-03T07:21:12.917Z,5.53
2022-08-03T07:23:42.991Z,5.20
2022-08-03T07:26:15.990Z,5.85
2022-08-03T07:28:46.096Z,6.07
2022-08-03T07:31:16.332Z,5.40
2022-08-03T07:33:46.630Z,5.30
2022-08-03T07:36:16.823Z,5.95
2022-08-03T07:38:47.046Z,5.13
2022-08-03T07:41:19.827Z,5.50
2022-08-03T07:43:50.060Z,5.95
2022-08-03T07:46:20.167Z,5.32
2022-08-03T07:48:50.351Z,5.25
2022-08-03T07:51:20.597Z,5.43
2022-08-03T07:53:50.887Z,4.88
2022-08-03T07:56:25.973Z,6.20
2022-08-03T07:58:57.452Z,5.75
2022-08-03T08:01:27.883Z,5.43
2022-08-03T08:03:58.302Z,5.70
2022-08-03T08:06:28.458Z,5.45
2022-08-03T08:09:01.876Z,5.68
2022-08-03T08:11:39.702Z,4.85
2022-08-03T08:14:10.205Z,6.00
2022-08-03T08:16:40.305Z,6.05
2022-08-03T08:19:12.807Z,5.40
2022-08-03T08:21:53.019Z,5.97
2022-08-03T08:24:34.106Z,5.97
2022-08-03T08:27:08.879Z,5.55
2022-08-03T08:29:47.571Z,5.75
2022-08-03T08:32:24.515Z,6.28
2022-08-03T08:34:54.658Z,5.68
2022-08-03T08:37:24.797Z,5.85
2022-08-03T08:39:56.029Z,5.70
2022-08-03T08:42:31.299Z,5.72
2022-08-03T08:45:01.544Z,5.85
2022-08-03T08:47:50.912Z,5.88
2022-08-03T08:50:27.654Z,5.22
2022-08-03T08:52:59.363Z,5.30
2022-08-03T08:55:29.888Z,5.05
2022-08-03T08:58:24.531Z,5.57
2022-08-03T09:00:55.136Z,5.63
2022-08-03T09:03:30.361Z,5.68
2022-08-03T09:06:03.383Z,5.45
2022-08-03T09:08:34.587Z,4.97
2022-08-03T09:11:05.027Z,5.47
2022-08-03T09:13:39.296Z,5.60
2022-08-03T09:16:14.788Z,5.32
2022-08-03T09:18:45.887Z,5.63
2022-08-03T09:21:31.198Z,4.57
2022-08-03T09:24:05.865Z,5.22
2022-08-03T09:26:38.608Z,4.78
2022-08-03T09:29:15.184Z,4.87
2022-08-03T09:31:47.930Z,5.22
2022-08-03T09:34:19.682Z,5.55
2022-08-03T09:36:51.686Z,5.35
2022-08-03T09:39:40.975Z,4.80
2022-08-03T09:42:15.647Z,5.25
2022-08-03T09:44:50.056Z,5.82
2022-08-03T09:47:31.253Z,4.85
2022-08-03T09:50:04.230Z,4.80
2022-08-03T09:52:49.990Z,4.10
2022-08-03T09:56:34.645Z,5.10
2022-08-03T09:58:17.531Z,5.35
2022-08-03T10:01:00.252Z,4.95
2022-08-03T10:03:32.139Z,4.45
2022-08-03T10:06:02.282Z,4.90
2022-08-03T10:08:40.105Z,5.00
2022-08-03T10:11:10.364Z,4.78
2022-08-03T10:13:41.187Z,4.95
2022-08-03T10:16:21.521Z,5.25
2022-08-03T10:18:57.245Z,5.30
2022-08-03T10:21:28.224Z,5.32
2022-08-03T10:23:59.384Z,5.03
2022-08-03T10:26:31.989Z,4.38
2022-08-03T10:29:12.787Z,4.50
2022-08-03T10:31:57.733Z,5.10
2022-08-03T10:34:31.959Z,4.97
2022-08-03T10:37:04.697Z,5.43
2022-08-03T10:39:35.312Z,4.72
2022-08-03T10:42:14.438Z,5.20
2022-08-03T10:44:45.593Z,4.82
2022-08-03T10:47:19.066Z,5.07
2022-08-03T10:49:51.555Z,4.80
2022-08-03T10:52:31.974Z,4.80
2022-08-03T10:55:16.580Z,5.20
2022-08-03T10:57:58.929Z,4.80
2022-08-03T11:00:31.723Z,4.82
2022-08-03T11:03:15.898Z,5.05
2022-08-03T11:05:48.377Z,4.63
2022-08-03T11:08:30.747Z,4.68
2022-08-03T11:11:05.962Z,4.97
2022-08-03T11:13:36.367Z,5.22
2022-08-03T11:16:23.627Z,4.80
2022-08-03T11:19:05.129Z,4.85
2022-08-03T11:22:01.148Z,5.03
2022-08-03T11:25:01.337Z,5.10
2022-08-03T11:27:33.777Z,4.50
2022-08-03T11:30:09.045Z,5.10
2022-08-03T11:32:59.944Z,4.68
2022-08-03T11:35:35.615Z,4.45
2022-08-03T11:38:12.122Z,4.38
2022-08-03T11:40:47.698Z,4.70
2022-08-03T11:43:48.646Z,5.25
2022-08-03T11:46:28.769Z,5.13
2022-08-03T11:49:10.554Z,4.53
2022-08-03T11:51:46.903Z,4.70
2022-08-03T11:54:17.168Z,4.63
2022-08-03T11:56:48.436Z,4.60
2022-08-03T11:59:22.201Z,4.70
2022-08-03T12:01:53.377Z,4.22
2022-08-03T12:04:23.606Z,4.57
2022-08-03T12:07:14.274Z,4.82
2022-08-03T12:10:11.947Z,5.18
2022-08-03T12:12:46.429Z,4.30
2022-08-03T12:15:17.211Z,4.55
2022-08-03T12:17:47.479Z,4.40
2022-08-03T12:20:31.502Z,4.60
2022-08-03T12:23:09.822Z,4.47
2022-08-03T12:25:42.819Z,4.05
2022-08-03T12:31:09.603Z,4.28
2022-08-03T12:33:58.863Z,3.92
2022-08-03T12:36:30.200Z,4.00
2022-08-03T12:39:05.910Z,4.68
2022-08-03T12:41:38.075Z,4.07
2022-08-03T12:44:10.671Z,4.40
2022-08-03T12:46:47.425Z,4.50
2022-08-03T12:49:19.807Z,4.72
2022-08-03T12:52:06.924Z,4.30
2022-08-03T12:54:40.369Z,4.32
2022-08-03T12:57:15.778Z,4.13
2022-08-03T12:59:53.273Z,4.43
2022-08-03T13:02:26.397Z,4.22
2022-08-03T13:04:57.611Z,4.80
2022-08-03T13:07:27.760Z,4.55
2022-08-03T13:10:06.196Z,4.18
2022-08-03T13:12:49.602Z,4.60
2022-08-03T13:15:19.834Z,4.30
2022-08-03T13:17:50.174Z,4.35
2022-08-03T13:20:20.861Z,4.32
2022-08-03T13:22:51.241Z,4.32
2022-08-03T13:25:24.371Z,4.45
2022-08-03T13:28:11.076Z,4.95
2022-08-03T13:30:44.178Z,4.82
2022-08-03T13:33:16.843Z,4.82
2022-08-03T13:35:46.994Z,4.88
2022-08-03T13:38:17.664Z,4.40
2022-08-03T13:40:54.670Z,4.60
2022-08-03T13:43:26.065Z,3.83
2022-08-03T13:45:57.661Z,4.38
2022-08-03T13:48:37.407Z,5.10
2022-08-03T13:51:21.751Z,4.93
2022-08-03T13:53:53.436Z,4.65
2022-08-03T13:56:26.335Z,4.50
2022-08-03T13:58:56.535Z,4.57
2022-08-03T14:01:54.252Z,4.80
2022-08-03T14:04:22.177Z,4.65
2022-08-03T14:06:52.667Z,4.63
2022-08-03T14:09:23.151Z,4.78
2022-08-03T14:12:06.841Z,4.35
2022-08-03T14:14:39.287Z,4.93
2022-08-03T14:17:09.455Z,4.88
2022-08-03T14:19:52.519Z,4.68
2022-08-03T14:22:24.369Z,4.47
2022-08-03T14:24:54.524Z,4.60
2022-08-03T14:27:27.355Z,4.05
2022-08-03T14:30:01.509Z,4.32
2022-08-03T14:32:31.932Z,4.78
2022-08-03T14:35:02.095Z,4.40
2022-08-03T14:37:33.148Z,4.18
2022-08-03T14:40:04.160Z,4.45
2022-08-03T14:42:37.076Z,4.85
2022-08-03T14:45:09.579Z,4.35
2022-08-03T14:50:50.735Z,4.82
2022-08-03T14:53:21.917Z,5.05
2022-08-03T14:55:53.545Z,4.25
2022-08-03T14:58:28.133Z,4.70
2022-08-03T15:00:59.169Z,4.53
2022-08-03T15:03:29.319Z,4.65
2022-08-03T15:06:00.097Z,5.15
2022-08-03T15:08:30.278Z,4.72
2022-08-03T15:11:00.455Z,4.43
2022-08-03T15:13:33.183Z,4.32
2022-08-03T15:16:03.618Z,4.53
2022-08-03T15:18:34.250Z,4.65
2022-08-03T15:21:04.457Z,4.82
2022-08-03T15:23:34.667Z,4.75
2022-08-03T15:26:31.583Z,4.65
2022-08-03T15:28:58.181Z,4.10
2022-08-03T15:31:29.094Z,4.53
2022-08-03T15:33:59.288Z,4.07
2022-08-03T15:36:29.485Z,4.10
2022-08-03T15:39:00.145Z,4.30
2022-08-03T15:41:30.422Z,4.20
2022-08-03T15:44:09.065Z,4.10
2022-08-03T15:46:39.481Z,4.25
2022-08-03T15:49:09.621Z,4.30
2022-08-03T15:51:39.863Z,4.18
2022-08-03T15:54:17.749Z,4.30
2022-08-03T15:56:47.853Z,4.63
2022-08-03T15:59:20.837Z,4.65
2022-08-03T16:01:52.032Z,4.10
2022-08-03T16:04:52.295Z,4.57
2022-08-03T16:08:03.236Z,4.10
2022-08-03T16:10:35.817Z,4.07
2022-08-03T16:13:06.126Z,4.40
2022-08-03T16:15:39.126Z,4.72
2022-08-03T16:18:09.510Z,4.35
2022-08-03T16:20:39.662Z,4.45
2022-08-03T16:23:12.660Z,4.63
2022-08-03T16:25:49.153Z,5.07
2022-08-03T16:28:20.380Z,4.45
2022-08-03T16:30:53.453Z,4.60
2022-08-03T16:33:23.602Z,5.10
2022-08-03T16:35:53.823Z,4.70
2022-08-03T16:38:24.412Z,5.07
2022-08-03T16:40:55.316Z,4.45
2022-08-03T16:43:25.897Z,4.35
2022-08-03T16:45:58.753Z,4.30
2022-08-03T16:50:59.755Z,4.50
2022-08-03T16:53:42.137Z,4.68
2022-08-03T16:56:20.079Z,4.40
2022-08-03T16:58:51.155Z,4.90
2022-08-03T17:01:25.068Z,4.88
2022-08-03T17:04:06.041Z,4.88
2022-08-03T17:06:45.103Z,4.82
2022-08-03T17:09:19.117Z,4.45
2022-08-03T17:11:53.461Z,4.75
2022-08-03T17:14:31.493Z,4.70
2022-08-03T17:17:07.378Z,4.32
2022-08-03T17:19:48.900Z,4.70
2022-08-03T17:22:34.220Z,4.35
2022-08-03T17:25:09.565Z,4.88
2022-08-03T17:28:51.024Z,4.63
2022-08-03T17:30:58.958Z,5.00
2022-08-03T17:33:35.743Z,4.68
2022-08-03T17:36:06.103Z,4.57
2022-08-03T17:38:38.088Z,4.70
2022-08-03T17:41:10.984Z,4.40
2022-08-03T17:44:12.814Z,4.53
2022-08-03T17:46:33.890Z,4.47
2022-08-03T17:49:24.513Z,4.55
2022-08-03T17:52:01.085Z,4.82
2022-08-03T17:55:56.990Z,4.00
2022-08-03T17:58:03.084Z,4.78
2022-08-03T18:00:44.193Z,4.05
2022-08-03T18:03:22.343Z,4.30
2022-08-03T18:06:11.682Z,4.60
2022-08-03T18:08:54.439Z,5.00
2022-08-03T18:11:35.658Z,4.25
2022-08-03T18:14:16.297Z,5.07
2022-08-03T18:16:48.485Z,4.35
2022-08-03T18:19:19.769Z,4.28
2022-08-03T18:22:03.740Z,4.68
2022-08-03T18:24:34.368Z,5.50
2022-08-03T18:27:05.239Z,4.65
2022-08-03T18:29:38.933Z,5.35
2022-08-03T18:32:16.791Z,4.60
2022-08-03T18:34:59.492Z,5.00
2022-08-03T18:37:51.958Z,4.80
2022-08-03T18:40:24.084Z,5.33
2022-08-03T18:42:58.588Z,4.75
2022-08-03T18:45:57.204Z,4.38
2022-08-03T18:48:35.383Z,4.80
2022-08-03T18:51:09.149Z,4.40
2022-08-03T18:54:03.962Z,4.45
2022-08-03T18:56:45.240Z,4.60
2022-08-03T18:59:30.289Z,5.15
2022-08-03T19:02:09.341Z,4.82
2022-08-03T19:04:47.905Z,4.38
2022-08-03T19:07:23.402Z,4.45
2022-08-03T19:09:58.631Z,4.13
2022-08-03T19:12:39.541Z,4.10
2022-08-03T19:15:13.512Z,4.47
2022-08-03T19:17:53.388Z,4.40
2022-08-03T19:20:25.558Z,4.90
2022-08-03T19:22:57.307Z,5.65
2022-08-03T19:25:34.983Z,4.85
2022-08-03T19:28:07.194Z,4.45
2022-08-03T19:30:40.093Z,4.13
2022-08-03T19:36:52.544Z,4.10
2022-08-03T19:39:22.788Z,4.28
2022-08-03T19:42:22.864Z,4.57
2022-08-03T19:44:58.165Z,4.95
2022-08-03T19:47:34.847Z,5.20
2022-08-03T19:50:14.034Z,5.13
2022-08-03T19:52:47.829Z,4.80
2022-08-03T19:55:20.181Z,4.90
2022-08-03T19:57:58.851Z,5.00
2022-08-03T20:00:30.528Z,4.55
2022-08-03T20:03:21.984Z,4.38
2022-08-03T20:05:57.641Z,4.28
2022-08-03T20:08:31.617Z,4.18
2022-08-03T20:11:03.097Z,4.25
2022-08-03T20:13:42.103Z,4.10
2022-08-03T20:16:14.969Z,4.40
2022-08-03T20:18:46.230Z,4.30
2022-08-03T20:21:19.057Z,4.20
2022-08-03T20:24:03.427Z,4.20
2022-08-03T20:26:45.514Z,4.07
2022-08-03T20:29:23.101Z,3.80
2022-08-03T20:32:13.223Z,3.80
2022-08-03T20:34:49.382Z,4.30
2022-08-03T20:39:54.469Z,4.18
2022-08-03T20:42:25.004Z,4.07
2022-08-03T20:45:04.430Z,4.40
2022-08-03T20:47:41.647Z,3.88
2022-08-03T20:50:22.627Z,3.40
2022-08-03T20:52:52.831Z,4.50
2022-08-03T20:55:47.596Z,3.88
2022-08-03T20:58:13.500Z,3.22
2022-08-03T21:00:47.404Z,4.35
2022-08-03T21:03:21.884Z,3.70
2022-08-03T21:05:55.801Z,3.70
2022-08-03T21:08:29.122Z,4.03
2022-08-03T21:11:01.400Z,4.57
2022-08-03T21:13:42.211Z,3.70
2022-08-03T21:16:17.058Z,3.78
2022-08-03T21:18:53.554Z,3.83
2022-08-03T21:21:26.350Z,3.63
2022-08-03T21:23:58.122Z,3.53
2022-08-03T21:26:30.112Z,3.30
2022-08-03T21:29:00.847Z,3.63
2022-08-03T21:31:33.582Z,3.08
2022-08-03T21:34:07.053Z,2.93
2022-08-03T21:36:38.804Z,2.80
2022-08-03T21:39:13.475Z,3.20
2022-08-03T21:41:43.842Z,2.95
2022-08-03T21:44:15.341Z,2.97
2022-08-03T21:46:49.083Z,3.30
2022-08-03T21:49:51.759Z,2.80
2022-08-03T21:52:10.662Z,2.50
2022-08-03T21:54:44.001Z,2.95
2022-08-03T21:57:20.518Z,2.80
2022-08-03T21:59:57.096Z,3.03
2022-08-03T22:02:32.998Z,2.60
2022-08-03T22:05:04.773Z,2.53
2022-08-03T22:07:36.396Z,2.58
2022-08-03T22:10:09.304Z,2.45
2022-08-03T22:12:40.173Z,2.53
2022-08-03T22:15:14.015Z,2.65
2022-08-03T22:17:54.824Z,2.40
2022-08-03T22:20:28.788Z,2.35
2022-08-03T22:23:04.133Z,2.50
2022-08-03T22:25:37.049Z,2.47
2022-08-03T22:28:11.851Z,2.40
2022-08-03T22:30:44.268Z,2.72
2022-08-03T22:33:18.094Z,2.80
2022-08-03T22:35:52.545Z,2.97
2022-08-03T22:38:22.666Z,2.55
2022-08-03T22:40:53.555Z,2.75
2022-08-03T22:43:25.967Z,2.78
2022-08-03T22:46:10.208Z,2.50
2022-08-03T22:48:46.308Z,2.42
2022-08-03T22:51:18.604Z,2.35
2022-08-03T22:53:49.274Z,2.50
2022-08-03T22:56:19.466Z,2.67
2022-08-03T22:58:49.579Z,2.20
2022-08-03T23:01:23.480Z,2.15
2022-08-03T23:04:02.878Z,2.38
2022-08-03T23:06:37.465Z,2.30
2022-08-03T23:09:10.054Z,2.45
2022-08-03T23:11:45.429Z,2.40
2022-08-03T23:14:18.041Z,2.72
2022-08-03T23:16:49.969Z,2.33
2022-08-03T23:19:25.691Z,2.40
2022-08-03T23:22:02.174Z,2.80
2022-08-03T23:24:33.772Z,2.70
2022-08-03T23:27:05.893Z,2.65
2022-08-03T23:29:37.816Z,2.53
2022-08-03T23:32:09.756Z,2.75
2022-08-03T23:34:55.605Z,2.70
2022-08-03T23:37:28.445Z,2.25
2022-08-03T23:42:30.566Z,2.30
2022-08-03T23:45:05.919Z,2.17
2022-08-03T23:47:46.519Z,2.45
2022-08-03T23:50:21.466Z,3.55
2022-08-03T23:55:47.623Z,2.03
2022-08-03T23:58:29.040Z,2.13
